Time;durP1;ratioP1;P1;durP2;ratioP2;P2;SDS_P1;SDS_P2;PMS_P1;PMS_P2;Temp;Humidity;BMP_temperature;BMP_pressure;BME280_temperature;BME280_humidity;BME280_pressure;Samples;Min_cycle;Max_cycle;Signal;HPM_P1;HPM_P2
2023/04/16 00:00:39;;;;;;;3.47;0.77;;;17.60;61.00;;;;;;5064502;28;20208;-47
2023/04/16 00:03:09;;;;;;;2.03;0.93;;;17.60;60.90;;;;;;5067683;28;20225;-48
2023/04/16 00:05:39;;;;;;;2.53;1.03;;;17.60;60.90;;;;;;5058748;28;20210;-47
2023/04/16 00:08:10;;;;;;;2.20;0.90;;;17.60;60.90;;;;;;5042945;28;20204;-48
2023/04/16 00:10:40;;;;;;;1.43;0.80;;;17.60;60.90;;;;;;5044381;28;20255;-48
2023/04/16 00:13:09;;;;;;;3.40;1.00;;;17.60;61.00;;;;;;5063210;28;20219;-48
2023/04/16 00:15:39;;;;;;;2.30;1.03;;;17.60;61.00;;;;;;5064875;28;20198;-48
2023/04/16 00:18:10;;;;;;;2.80;0.83;;;17.60;60.90;;;;;;5066307;28;20194;-48
2023/04/16 00:20:41;;;;;;;2.17;0.80;;;17.60;60.80;;;;;;5067554;28;20205;-48
2023/04/16 00:23:12;;;;;;;1.87;0.93;;;17.60;60.90;;;;;;5058279;28;20249;-48
2023/04/16 00:25:46;;;;;;;1.80;0.80;;;17.60;60.80;;;;;;5054889;28;20259;-48
2023/04/16 00:28:13;;;;;;;1.57;0.60;;;17.60;60.80;;;;;;5068305;28;20237;-48
2023/04/16 00:30:45;;;;;;;2.93;0.70;;;17.60;60.90;;;;;;5051263;28;20293;-47
2023/04/16 00:33:16;;;;;;;1.60;0.57;;;17.60;60.80;;;;;;5079502;28;20239;-48
2023/04/16 00:35:46;;;;;;;4.17;1.10;;;17.60;60.80;;;;;;5051777;28;20856;-48
2023/04/16 00:38:22;;;;;;;2.43;1.13;;;17.60;60.80;;;;;;5040184;28;20209;-48
2023/04/16 00:40:50;;;;;;;1.80;0.93;;;17.60;60.80;;;;;;5070655;28;20217;-48
2023/04/16 00:43:26;;;;;;;2.63;1.13;;;17.50;60.70;;;;;;5053863;28;20212;-48
2023/04/16 00:46:03;;;;;;;2.37;1.00;;;17.60;60.70;;;;;;5038484;28;20177;-48
2023/04/16 00:48:37;;;;;;;2.43;0.87;;;17.60;60.70;;;;;;5064289;28;20259;-47
2023/04/16 00:51:05;;;;;;;1.93;0.87;;;17.60;60.70;;;;;;5068124;28;20203;-48
2023/04/16 00:53:34;;;;;;;3.90;1.07;;;17.60;60.70;;;;;;5066639;28;20240;-47
2023/04/16 00:56:04;;;;;;;3.67;0.83;;;17.50;60.60;;;;;;5048877;28;20569;-47
2023/04/16 00:58:40;;;;;;;2.60;1.20;;;17.50;60.70;;;;;;5055652;28;20668;-48
2023/04/16 01:01:15;;;;;;;2.27;0.57;;;17.50;60.70;;;;;;5068998;28;20508;-48
2023/04/16 01:03:48;;;;;;;3.13;1.10;;;17.50;60.60;;;;;;5050397;28;20328;-48
2023/04/16 01:06:18;;;;;;;2.90;1.30;;;17.60;60.60;;;;;;5067238;28;20205;-48
2023/04/16 01:08:47;;;;;;;1.63;0.80;;;17.50;60.60;;;;;;5060375;28;20568;-47
2023/04/16 01:11:16;;;;;;;1.93;0.83;;;17.60;60.50;;;;;;5057567;28;20225;-48
2023/04/16 01:13:45;;;;;;;2.60;0.80;;;17.50;60.60;;;;;;5060270;28;20195;-48
2023/04/16 01:16:16;;;;;;;3.00;1.17;;;17.50;60.60;;;;;;5067983;28;20186;-47
2023/04/16 01:18:48;;;;;;;3.47;1.10;;;17.50;60.50;;;;;;5068631;28;20202;-48
2023/04/16 01:21:16;;;;;;;2.17;1.07;;;17.50;60.60;;;;;;5069507;28;20194;-48
2023/04/16 01:23:43;;;;;;;3.10;1.10;;;17.50;60.60;;;;;;5068405;28;20285;-48
2023/04/16 01:26:14;;;;;;;3.70;1.10;;;17.50;60.50;;;;;;5071493;28;20771;-48
2023/04/16 01:28:45;;;;;;;1.47;0.83;;;17.60;60.50;;;;;;5068888;28;20627;-48
2023/04/16 01:31:16;;;;;;;1.70;0.70;;;17.50;60.50;;;;;;5061846;28;20198;-48
2023/04/16 01:33:45;;;;;;;2.17;1.00;;;17.50;60.50;;;;;;5061918;28;20213;-48
2023/04/16 01:36:17;;;;;;;2.20;0.90;;;17.50;60.50;;;;;;5052846;28;20194;-48
2023/04/16 01:38:45;;;;;;;2.27;1.00;;;17.50;60.50;;;;;;5066983;28;20196;-48
2023/04/16 01:41:15;;;;;;;2.53;1.00;;;17.50;60.50;;;;;;5068852;28;20707;-48
2023/04/16 01:43:46;;;;;;;2.73;1.10;;;17.50;60.50;;;;;;5071373;28;20209;-48
2023/04/16 01:46:31;;;;;;;1.97;0.93;;;17.50;60.60;;;;;;5073741;28;20201;-48
2023/04/16 01:49:01;;;;;;;1.83;0.77;;;17.50;60.50;;;;;;5039036;28;20202;-48
2023/04/16 01:51:33;;;;;;;1.73;0.50;;;17.50;61.10;;;;;;5068323;28;20256;-47
2023/04/16 01:54:06;;;;;;;2.97;1.00;;;17.50;60.60;;;;;;5070526;28;20198;-48
2023/04/16 01:56:36;;;;;;;2.63;0.93;;;17.50;60.60;;;;;;5073862;28;20190;-47
2023/04/16 01:59:05;;;;;;;2.13;0.90;;;17.50;60.50;;;;;;5057844;28;20674;-47
2023/04/16 02:01:34;;;;;;;1.90;1.00;;;17.50;60.50;;;;;;5045822;28;20187;-48
2023/04/16 02:04:03;;;;;;;2.73;0.90;;;17.50;60.50;;;;;;5085032;28;20200;-48
2023/04/16 02:06:32;;;;;;;1.63;0.90;;;17.50;60.50;;;;;;5059574;28;20690;-48
2023/04/16 02:09:01;;;;;;;2.93;0.80;;;17.40;60.40;;;;;;5050227;28;20221;-48
2023/04/16 02:11:39;;;;;;;3.47;1.20;;;17.40;60.40;;;;;;5070349;28;20635;-48
2023/04/16 02:14:09;;;;;;;2.17;0.90;;;17.50;60.50;;;;;;5071829;28;20209;-48
2023/04/16 02:16:37;;;;;;;2.70;0.80;;;17.50;60.50;;;;;;5058523;28;20197;-48
2023/04/16 02:19:04;;;;;;;4.70;1.33;;;17.50;60.50;;;;;;5072260;28;20202;-48
2023/04/16 02:21:31;;;;;;;1.80;0.90;;;17.50;60.50;;;;;;5064911;28;20194;-48
2023/04/16 02:24:02;;;;;;;1.97;1.00;;;17.50;60.50;;;;;;5075171;28;20237;-48
2023/04/16 02:26:41;;;;;;;2.30;0.80;;;17.40;60.40;;;;;;5071599;28;20232;-48
2023/04/16 02:29:11;;;;;;;2.70;0.90;;;17.50;60.40;;;;;;5070169;28;20189;-48
2023/04/16 02:31:43;;;;;;;3.20;1.03;;;17.40;60.40;;;;;;5068924;28;20200;-48
2023/04/16 02:34:25;;;;;;;3.90;1.07;;;17.50;60.50;;;;;;5056803;28;20217;-48
2023/04/16 02:36:57;;;;;;;2.50;0.80;;;17.50;60.40;;;;;;5076520;28;20197;-48
2023/04/16 02:39:30;;;;;;;2.50;0.80;;;17.50;60.50;;;;;;5058104;28;20198;-48
2023/04/16 02:42:01;;;;;;;3.77;1.20;;;17.40;60.40;;;;;;5067146;28;20197;-48
2023/04/16 02:44:36;;;;;;;4.30;1.13;;;17.50;60.40;;;;;;5063713;28;20201;-48
2023/04/16 02:47:04;;;;;;;3.93;1.23;;;17.50;60.50;;;;;;5066581;28;20650;-48
2023/04/16 02:49:36;;;;;;;2.13;0.90;;;17.50;60.40;;;;;;5069832;28;20217;-48
2023/04/16 02:52:08;;;;;;;2.70;1.17;;;17.40;60.40;;;;;;5070629;28;20213;-48
2023/04/16 02:54:42;;;;;;;2.47;0.87;;;17.40;60.40;;;;;;5064680;28;20197;-48
2023/04/16 02:57:14;;;;;;;2.43;1.10;;;17.40;60.40;;;;;;5073880;28;20662;-48
2023/04/16 02:59:46;;;;;;;3.10;1.10;;;17.40;60.40;;;;;;5066293;28;20248;-48
2023/04/16 03:02:19;;;;;;;1.77;1.17;;;17.40;60.40;;;;;;5061039;28;20214;-48
2023/04/16 03:04:52;;;;;;;1.53;0.83;;;17.40;60.40;;;;;;5069188;28;20193;-47
2023/04/16 03:07:25;;;;;;;3.27;1.20;;;17.40;60.40;;;;;;5068621;28;20201;-48
2023/04/16 03:09:56;;;;;;;1.73;0.90;;;17.40;60.40;;;;;;5068011;28;20214;-48
2023/04/16 03:12:26;;;;;;;2.20;0.83;;;17.40;60.50;;;;;;5067285;28;20213;-47
2023/04/16 03:14:54;;;;;;;3.47;1.03;;;17.40;60.40;;;;;;5048531;28;20531;-48
2023/04/16 03:17:26;;;;;;;2.10;1.30;;;17.40;60.50;;;;;;5080253;28;21315;-48
2023/04/16 03:19:55;;;;;;;2.20;1.00;;;17.40;60.50;;;;;;5068178;28;20333;-48
2023/04/16 03:22:25;;;;;;;2.73;1.23;;;17.40;60.50;;;;;;5068250;28;20279;-48
2023/04/16 03:24:56;;;;;;;1.80;0.97;;;17.40;60.50;;;;;;5060239;28;20221;-48
2023/04/16 03:27:28;;;;;;;2.60;1.30;;;17.40;60.50;;;;;;5066237;28;20530;-48
2023/04/16 03:29:57;;;;;;;2.87;1.17;;;17.40;60.50;;;;;;5068628;28;20200;-48
2023/04/16 03:32:26;;;;;;;2.63;1.07;;;17.40;60.50;;;;;;5065356;28;20208;-48
2023/04/16 03:34:55;;;;;;;2.23;1.37;;;17.40;60.50;;;;;;5063374;28;20198;-47
2023/04/16 03:37:25;;;;;;;2.70;1.40;;;17.40;60.50;;;;;;5080109;28;20232;-47
2023/04/16 03:39:55;;;;;;;1.83;1.10;;;17.40;60.50;;;;;;5067879;28;20204;-48
2023/04/16 03:42:25;;;;;;;1.83;1.07;;;17.40;60.50;;;;;;5075109;28;20229;-48
2023/04/16 03:44:59;;;;;;;2.93;1.10;;;17.40;60.30;;;;;;5065447;28;20194;-47
2023/04/16 03:47:31;;;;;;;2.30;1.30;;;17.40;60.40;;;;;;5070046;28;20210;-49
2023/04/16 03:50:02;;;;;;;2.70;1.20;;;17.40;60.40;;;;;;5067868;28;20206;-48
2023/04/16 03:52:31;;;;;;;1.67;0.90;;;17.40;60.50;;;;;;5050385;28;20214;-48
2023/04/16 03:55:05;;;;;;;2.93;1.20;;;17.30;60.40;;;;;;5065924;28;20213;-48
2023/04/16 03:57:35;;;;;;;2.33;1.10;;;17.40;60.40;;;;;;5068495;28;20518;-48
2023/04/16 04:00:05;;;;;;;1.90;1.50;;;17.40;60.50;;;;;;5072823;28;20548;-48
2023/04/16 04:02:34;;;;;;;3.17;1.23;;;17.40;60.50;;;;;;5059990;28;20224;-48
2023/04/16 04:05:06;;;;;;;2.97;1.53;;;17.40;60.50;;;;;;5065598;28;20186;-48
2023/04/16 04:07:38;;;;;;;3.27;1.50;;;17.40;60.50;;;;;;5079700;28;20204;-48
2023/04/16 04:10:10;;;;;;;3.10;1.23;;;17.40;60.50;;;;;;5072967;28;20194;-48
2023/04/16 04:12:41;;;;;;;2.67;1.33;;;17.40;60.40;;;;;;5066975;28;20245;-47
2023/04/16 04:15:11;;;;;;;2.30;1.30;;;17.40;60.40;;;;;;5058552;28;20224;-48
2023/04/16 04:17:39;;;;;;;4.87;1.60;;;17.30;60.30;;;;;;5071868;28;20263;-47
2023/04/16 04:20:08;;;;;;;3.00;1.40;;;17.40;60.40;;;;;;5063857;28;20210;-48
2023/04/16 04:22:37;;;;;;;2.13;1.20;;;17.30;61.00;;;;;;5067465;28;20216;-48
2023/04/16 04:25:07;;;;;;;3.43;1.50;;;17.30;60.40;;;;;;5069813;28;20264;-48
2023/04/16 04:27:37;;;;;;;3.53;1.67;;;17.30;60.30;;;;;;5057994;28;20205;-48
2023/04/16 04:30:13;;;;;;;2.67;1.40;;;17.30;60.40;;;;;;5072885;28;20305;-48
2023/04/16 04:33:00;;;;;;;2.53;1.73;;;17.40;60.40;;;;;;5046642;28;20225;-47
2023/04/16 04:35:59;;;;;;;1.97;1.40;;;17.30;60.50;;;;;;5066450;28;20222;-45
2023/04/16 04:38:38;;;;;;;4.13;1.87;;;17.30;60.40;;;;;;5062081;28;20209;-48
2023/04/16 04:41:06;;;;;;;4.23;1.70;;;17.30;60.40;;;;;;5072983;28;20259;-46
2023/04/16 04:43:35;;;;;;;3.70;1.87;;;17.40;60.40;;;;;;5065332;28;20638;-48
2023/04/16 04:46:05;;;;;;;4.73;2.00;;;17.30;60.30;;;;;;5084389;28;20193;-48
2023/04/16 04:48:34;;;;;;;3.43;2.23;;;17.30;60.30;;;;;;5071713;28;20604;-48
2023/04/16 04:51:05;;;;;;;5.60;1.90;;;17.30;60.30;;;;;;5073535;28;20193;-47
2023/04/16 04:53:34;;;;;;;3.03;1.83;;;17.30;60.30;;;;;;5080906;28;20205;-47
2023/04/16 04:56:16;;;;;;;3.27;2.00;;;17.30;60.20;;;;;;5042531;28;20248;-48
2023/04/16 04:58:49;;;;;;;3.93;2.20;;;17.30;60.20;;;;;;5057581;28;20190;-48
2023/04/16 05:01:19;;;;;;;4.67;2.17;;;17.30;60.20;;;;;;5039896;28;20278;-47
2023/04/16 05:03:52;;;;;;;2.73;1.93;;;17.30;60.20;;;;;;5071090;28;20244;-47
2023/04/16 05:06:21;;;;;;;3.30;2.00;;;17.30;60.10;;;;;;5075262;28;20604;-46
2023/04/16 05:08:52;;;;;;;5.33;2.17;;;17.30;60.20;;;;;;5063590;28;20222;-47
2023/04/16 05:11:20;;;;;;;3.73;2.10;;;17.30;60.20;;;;;;5060429;28;20206;-47
2023/04/16 05:13:51;;;;;;;4.57;2.27;;;17.30;60.20;;;;;;5071566;28;20197;-46
2023/04/16 05:16:21;;;;;;;3.57;2.37;;;17.20;60.00;;;;;;5064382;28;20198;-48
2023/04/16 05:18:54;;;;;;;5.37;2.33;;;17.30;60.00;;;;;;5072236;28;20197;-48
2023/04/16 05:21:25;;;;;;;5.50;2.77;;;17.30;60.00;;;;;;5068170;28;20207;-47
2023/04/16 05:23:54;;;;;;;6.83;3.10;;;17.20;60.60;;;;;;5064381;28;20248;-47
2023/04/16 05:26:24;;;;;;;4.17;2.47;;;17.30;59.90;;;;;;5074577;28;20234;-47
2023/04/16 05:28:53;;;;;;;4.17;2.60;;;17.30;60.00;;;;;;5074597;28;20242;-47
2023/04/16 05:31:26;;;;;;;4.03;2.60;;;17.20;59.90;;;;;;5091801;28;20208;-47
2023/04/16 05:33:58;;;;;;;4.23;2.27;;;17.20;60.60;;;;;;5079338;28;20654;-47
2023/04/16 05:36:25;;;;;;;3.70;2.60;;;17.30;60.00;;;;;;5053851;28;20217;-47
2023/04/16 05:38:56;;;;;;;3.97;2.63;;;17.20;60.00;;;;;;5070033;28;20205;-47
2023/04/16 05:41:28;;;;;;;7.53;2.80;;;17.30;60.00;;;;;;5073961;28;20198;-47
2023/04/16 05:43:58;;;;;;;5.30;2.70;;;17.30;60.00;;;;;;5084408;28;20507;-47
2023/04/16 05:46:30;;;;;;;4.20;2.60;;;17.30;60.00;;;;;;5054829;28;20198;-47
2023/04/16 05:48:58;;;;;;;4.27;2.37;;;17.30;60.00;;;;;;5058349;28;20212;-47
2023/04/16 05:51:26;;;;;;;4.20;2.33;;;17.30;60.00;;;;;;5080842;28;20587;-47
2023/04/16 05:53:56;;;;;;;5.13;3.10;;;17.30;60.00;;;;;;5055176;28;20205;-47
2023/04/16 05:56:28;;;;;;;4.77;2.90;;;17.20;59.80;;;;;;5082988;28;20213;-47
2023/04/16 05:58:58;;;;;;;4.47;2.90;;;17.30;59.80;;;;;;5068219;28;20237;-47
2023/04/16 06:01:31;;;;;;;5.07;2.93;;;17.30;59.80;;;;;;5066653;28;20278;-47
2023/04/16 06:04:02;;;;;;;4.30;2.53;;;17.20;59.80;;;;;;5048907;28;20306;-47
2023/04/16 06:06:32;;;;;;;5.83;3.13;;;17.20;59.80;;;;;;5064707;28;20733;-47
2023/04/16 06:09:04;;;;;;;5.50;3.20;;;17.20;59.80;;;;;;5064894;28;20202;-47
2023/04/16 06:11:34;;;;;;;3.77;2.87;;;17.20;59.80;;;;;;5074025;28;20221;-47
2023/04/16 06:14:05;;;;;;;5.17;3.10;;;17.20;59.90;;;;;;5025729;28;20691;-47
2023/04/16 06:16:40;;;;;;;5.33;3.23;;;17.20;59.80;;;;;;5074840;28;20198;-47
2023/04/16 06:19:08;;;;;;;5.33;3.30;;;17.20;59.80;;;;;;5051631;28;20208;-47
2023/04/16 06:21:41;;;;;;;6.07;2.77;;;17.20;59.80;;;;;;5067100;28;20247;-47
2023/04/16 06:24:12;;;;;;;5.57;3.30;;;17.20;59.80;;;;;;5065591;28;20258;-47
2023/04/16 06:26:40;;;;;;;6.23;3.47;;;17.30;59.90;;;;;;5027637;28;20675;-47
2023/04/16 06:29:10;;;;;;;6.80;3.13;;;17.30;59.90;;;;;;5046234;28;20283;-47
2023/04/16 06:31:41;;;;;;;6.33;3.63;;;17.30;59.80;;;;;;5018039;28;20225;-47
2023/04/16 06:34:12;;;;;;;5.53;3.07;;;17.30;59.90;;;;;;5031810;28;20256;-47
2023/04/16 06:36:51;;;;;;;5.37;3.40;;;17.20;59.70;;;;;;5034171;28;20210;-47
2023/04/16 06:39:24;;;;;;;5.57;3.40;;;17.20;59.80;;;;;;5049173;28;20276;-47
2023/04/16 06:41:56;;;;;;;5.13;3.60;;;17.20;59.70;;;;;;5057871;28;20694;-47
2023/04/16 06:44:38;;;;;;;5.77;3.40;;;17.20;59.70;;;;;;5056063;28;20716;-47
2023/04/16 06:47:07;;;;;;;5.63;3.60;;;17.20;59.70;;;;;;5043094;28;20237;-47
2023/04/16 06:49:39;;;;;;;4.73;2.80;;;17.30;59.80;;;;;;5049736;28;20224;-47
2023/04/16 06:52:09;;;;;;;7.20;3.80;;;17.20;59.70;;;;;;5046423;28;20519;-47
2023/04/16 06:54:40;;;;;;;9.27;3.70;;;17.20;59.70;;;;;;5030606;28;20194;-47
2023/04/16 06:57:11;;;;;;;5.87;3.57;;;17.30;59.80;;;;;;5048160;28;20252;-47
2023/04/16 06:59:42;;;;;;;7.07;3.87;;;17.30;59.80;;;;;;5052247;28;20270;-47
2023/04/16 07:02:15;;;;;;;5.97;3.53;;;17.20;59.70;;;;;;5060851;28;20202;-47
2023/04/16 07:04:45;;;;;;;5.50;3.97;;;17.20;59.60;;;;;;5041589;28;20670;-47
2023/04/16 07:07:15;;;;;;;9.10;3.40;;;17.20;59.70;;;;;;5047644;28;20303;-47
2023/04/16 07:09:44;;;;;;;5.53;3.57;;;17.30;59.80;;;;;;5046093;28;20636;-47
2023/04/16 07:12:13;;;;;;;5.90;3.47;;;17.30;60.00;;;;;;5040923;28;20218;-47
2023/04/16 07:14:43;;;;;;;8.30;3.90;;;17.30;60.00;;;;;;5050527;28;20217;-47
2023/04/16 07:17:13;;;;;;;7.47;3.77;;;17.30;60.00;;;;;;5043139;28;20206;-47
2023/04/16 07:19:43;;;;;;;6.57;3.67;;;17.30;60.00;;;;;;5046143;28;20592;-47
2023/04/16 07:22:15;;;;;;;5.97;3.80;;;17.30;60.10;;;;;;5046987;28;20573;-47
2023/04/16 07:24:44;;;;;;;8.63;4.20;;;17.20;60.00;;;;;;5042401;28;20222;-47
2023/04/16 07:27:13;;;;;;;11.70;3.87;;;17.20;60.10;;;;;;5050026;28;20205;-47
2023/04/16 07:29:44;;;;;;;8.17;3.70;;;17.20;60.00;;;;;;5054927;28;20197;-48
2023/04/16 07:32:15;;;;;;;7.87;3.77;;;17.30;60.00;;;;;;5043093;28;20195;-47
2023/04/16 07:35:04;;;;;;;8.20;3.83;;;17.30;60.00;;;;;;5032612;28;20233;-46
2023/04/16 07:37:34;;;;;;;7.57;4.27;;;17.40;60.10;;;;;;5050091;28;20221;-47
2023/04/16 07:40:06;;;;;;;9.17;3.97;;;17.50;60.30;;;;;;5049098;28;20206;-47
2023/04/16 07:42:36;;;;;;;7.43;4.00;;;17.50;60.20;;;;;;5051878;28;20229;-47
2023/04/16 07:45:05;;;;;;;6.50;3.80;;;17.50;60.30;;;;;;5032913;28;20218;-46
2023/04/16 07:47:32;;;;;;;9.37;4.70;;;17.60;60.20;;;;;;5031930;28;20222;-46
2023/04/16 07:50:06;;;;;;;8.50;4.13;;;17.60;60.50;;;;;;5052902;28;20562;-47
2023/04/16 07:52:37;;;;;;;7.60;3.73;;;17.70;60.50;;;;;;5034302;28;20190;-46
2023/04/16 07:55:18;;;;;;;7.53;3.67;;;17.70;60.60;;;;;;5033067;28;20208;-47
2023/04/16 07:57:50;;;;;;;9.60;3.70;;;17.80;60.60;;;;;;5052301;28;20207;-46
2023/04/16 08:00:22;;;;;;;9.43;4.03;;;17.90;60.60;;;;;;5047113;28;20218;-46
2023/04/16 08:02:54;;;;;;;9.87;4.30;;;18.00;60.50;;;;;;5050957;28;20830;-46
2023/04/16 08:05:30;;;;;;;6.40;3.90;;;18.00;60.10;;;;;;5051298;28;20340;-46
2023/04/16 08:08:01;;;;;;;8.27;4.20;;;18.10;60.30;;;;;;5049470;28;20193;-47
2023/04/16 08:10:31;;;;;;;8.00;4.03;;;18.20;60.20;;;;;;5028193;28;20268;-46
2023/04/16 08:13:03;;;;;;;5.70;3.93;;;18.20;60.10;;;;;;5040734;28;20210;-46
2023/04/16 08:15:33;;;;;;;7.33;4.23;;;18.20;59.70;;;;;;5051948;28;20198;-47
2023/04/16 08:18:11;;;;;;;6.93;3.57;;;18.30;59.80;;;;;;5050097;28;20256;-46
2023/04/16 08:20:48;;;;;;;8.73;3.77;;;18.30;59.80;;;;;;5054315;28;20194;-47
2023/04/16 08:23:20;;;;;;;5.97;4.00;;;18.40;59.80;;;;;;5046448;28;20222;-46
2023/04/16 08:25:50;;;;;;;5.23;3.80;;;18.40;59.70;;;;;;5060263;28;20230;-46
2023/04/16 08:28:21;;;;;;;7.60;4.10;;;18.50;59.60;;;;;;5070395;28;20205;-46
2023/04/16 08:30:52;;;;;;;3.83;3.40;;;18.60;59.70;;;;;;5063648;28;20666;-46
2023/04/16 08:33:22;;;;;;;7.90;4.00;;;18.60;58.90;;;;;;5067791;28;20190;-46
2023/04/16 08:35:53;;;;;;;5.73;3.53;;;18.70;58.90;;;;;;5066612;28;20580;-46
2023/04/16 08:38:23;;;;;;;9.53;4.17;;;18.70;58.90;;;;;;5074293;28;20189;-46
2023/04/16 08:40:53;;;;;;;7.80;3.60;;;18.70;59.10;;;;;;5068813;28;20192;-46
2023/04/16 08:43:30;;;;;;;6.70;4.23;;;18.80;59.10;;;;;;5030808;28;20190;-46
2023/04/16 08:45:59;;;;;;;6.77;3.60;;;18.80;58.80;;;;;;5053030;28;20198;-46
2023/04/16 08:48:34;;;;;;;6.57;4.10;;;18.80;58.70;;;;;;5068797;28;20213;-46
2023/04/16 08:51:09;;;;;;;5.63;3.60;;;18.80;58.80;;;;;;5057568;28;20193;-47
2023/04/16 08:54:08;;;;;;;6.23;4.37;;;18.90;59.30;;;;;;5052625;28;20197;-46
2023/04/16 08:56:42;;;;;;;5.67;4.33;;;18.90;58.80;;;;;;5060932;28;20197;-47
2023/04/16 08:59:14;;;;;;;7.10;4.50;;;19.00;58.50;;;;;;5069458;28;20266;-47
2023/04/16 09:01:47;;;;;;;5.90;3.90;;;19.00;58.50;;;;;;5070661;28;20190;-47
2023/04/16 09:04:21;;;;;;;7.47;4.70;;;19.10;58.40;;;;;;5070952;28;20220;-47
2023/04/16 09:06:56;;;;;;;8.47;4.20;;;19.10;58.20;;;;;;5066434;28;20194;-47
2023/04/16 09:09:27;;;;;;;5.93;3.87;;;19.10;58.30;;;;;;5064599;28;20197;-47
2023/04/16 09:11:56;;;;;;;6.17;4.37;;;19.10;58.10;;;;;;5047819;28;20218;-47
2023/04/16 09:14:25;;;;;;;8.13;5.47;;;19.20;58.00;;;;;;5071046;28;20247;-47
2023/04/16 09:16:59;;;;;;;13.43;4.50;;;19.20;57.30;;;;;;5051779;28;20535;-46
2023/04/16 09:19:30;;;;;;;9.27;4.30;;;19.20;56.80;;;;;;5071972;28;20208;-46
2023/04/16 09:22:01;;;;;;;11.00;4.53;;;19.20;57.30;;;;;;5068926;28;20197;-46
2023/04/16 09:24:37;;;;;;;9.90;4.73;;;19.20;57.10;;;;;;5065132;28;20226;-47
2023/04/16 09:27:10;;;;;;;10.60;5.10;;;19.20;57.20;;;;;;5068537;28;20713;-46
2023/04/16 09:29:54;;;;;;;11.67;4.67;;;19.10;57.10;;;;;;5074476;28;20238;-47
2023/04/16 09:32:26;;;;;;;8.33;4.40;;;19.10;57.40;;;;;;5061524;28;20189;-46
2023/04/16 09:35:01;;;;;;;12.60;4.60;;;19.00;57.30;;;;;;5053452;28;20220;-47
2023/04/16 09:37:30;;;;;;;9.40;5.07;;;19.00;57.40;;;;;;5056311;28;20190;-47
2023/04/16 09:40:02;;;;;;;9.57;4.67;;;19.00;57.50;;;;;;5050916;28;20636;-47
2023/04/16 09:42:41;;;;;;;7.70;4.70;;;18.90;58.10;;;;;;5067977;28;20194;-46
2023/04/16 09:45:12;;;;;;;9.73;4.40;;;18.80;59.00;;;;;;5063666;28;20572;-46
2023/04/16 09:48:02;;;;;;;9.03;5.50;;;18.80;59.50;;;;;;5064986;28;20314;-47
2023/04/16 09:50:31;;;;;;;8.50;5.20;;;18.80;60.00;;;;;;5046791;28;20193;-46
2023/04/16 09:53:11;;;;;;;7.90;4.77;;;18.80;60.00;;;;;;5067351;28;20575;-46
2023/04/16 09:55:41;;;;;;;8.60;5.00;;;18.80;60.20;;;;;;5067989;28;20533;-46
2023/04/16 09:58:18;;;;;;;11.37;5.23;;;18.90;60.00;;;;;;5049909;28;20204;-46
2023/04/16 10:00:48;;;;;;;8.00;5.17;;;18.80;61.00;;;;;;5062878;28;20220;-46
2023/04/16 10:03:27;;;;;;;11.00;5.67;;;18.90;60.10;;;;;;5068553;28;20259;-47
2023/04/16 10:06:15;;;;;;;10.30;5.30;;;18.90;60.60;;;;;;5035522;28;20209;-47
2023/04/16 10:08:55;;;;;;;11.93;5.50;;;18.90;61.10;;;;;;5072819;28;20309;-47
2023/04/16 10:11:37;;;;;;;13.87;5.77;;;19.00;61.40;;;;;;5037377;28;20545;-47
2023/04/16 10:14:07;;;;;;;15.97;6.33;;;18.90;61.90;;;;;;5059888;28;20209;-47
2023/04/16 10:16:39;;;;;;;12.13;5.83;;;18.90;61.30;;;;;;5068129;28;20213;-47
2023/04/16 10:19:09;;;;;;;11.87;5.93;;;18.90;61.30;;;;;;5059027;28;20258;-47
2023/04/16 10:21:41;;;;;;;11.73;5.60;;;18.90;61.20;;;;;;5054771;28;20204;-47
2023/04/16 10:24:11;;;;;;;14.17;5.63;;;19.00;61.40;;;;;;5041914;28;20299;-46
2023/04/16 10:26:43;;;;;;;12.60;5.67;;;19.00;61.30;;;;;;5062540;28;20230;-46
2023/04/16 10:29:13;;;;;;;14.70;5.57;;;19.00;61.60;;;;;;5057179;28;20214;-46
2023/04/16 10:31:45;;;;;;;11.23;5.03;;;19.00;61.50;;;;;;5067043;28;20205;-47
2023/04/16 10:34:17;;;;;;;11.27;5.70;;;19.00;61.10;;;;;;5054877;28;20529;-46
2023/04/16 10:36:55;;;;;;;8.80;5.10;;;19.00;61.00;;;;;;5071527;28;20216;-46
2023/04/16 10:39:24;;;;;;;13.37;5.30;;;19.00;61.00;;;;;;5069368;28;20201;-46
2023/04/16 10:42:09;;;;;;;10.13;4.80;;;19.00;61.40;;;;;;5068394;28;20208;-46
2023/04/16 10:44:41;;;;;;;8.60;5.33;;;19.00;61.90;;;;;;5073937;28;20565;-47
2023/04/16 10:47:13;;;;;;;8.03;4.60;;;19.10;62.10;;;;;;5054475;28;20224;-46
2023/04/16 10:49:48;;;;;;;9.97;5.10;;;19.10;61.80;;;;;;5051572;28;20232;-46
2023/04/16 10:52:18;;;;;;;9.60;4.80;;;19.10;61.60;;;;;;5076944;28;20569;-47
2023/04/16 10:54:48;;;;;;;12.23;4.87;;;19.10;61.50;;;;;;5068085;28;20198;-47
2023/04/16 10:57:27;;;;;;;8.17;4.60;;;19.10;61.80;;;;;;5066783;28;20198;-47
2023/04/16 10:59:58;;;;;;;11.43;4.83;;;19.10;61.70;;;;;;5049303;28;20220;-47
2023/04/16 11:02:30;;;;;;;9.37;5.30;;;19.10;62.40;;;;;;5055851;28;20198;-47
2023/04/16 11:05:08;;;;;;;10.17;5.10;;;19.20;62.70;;;;;;5065457;28;20228;-47
2023/04/16 11:07:46;;;;;;;12.90;6.23;;;19.20;63.10;;;;;;5077916;28;20186;-47
2023/04/16 11:10:20;;;;;;;10.87;5.80;;;19.20;63.50;;;;;;5061750;28;20198;-45
2023/04/16 11:12:53;;;;;;;10.23;5.37;;;19.30;63.70;;;;;;5063508;28;20215;-46
2023/04/16 11:15:29;;;;;;;10.97;4.63;;;19.30;63.60;;;;;;5069224;28;20654;-46
2023/04/16 11:18:02;;;;;;;11.80;4.70;;;19.30;61.90;;;;;;5070439;28;20197;-46
2023/04/16 11:20:34;;;;;;;7.23;4.73;;;19.30;60.60;;;;;;5060676;28;20224;-46
2023/04/16 11:23:12;;;;;;;9.73;5.47;;;19.30;60.00;;;;;;5060798;28;20226;-46
2023/04/16 11:25:46;;;;;;;12.43;5.90;;;19.30;59.80;;;;;;5043328;28;20697;-46
2023/04/16 11:28:17;;;;;;;14.30;5.60;;;19.20;59.70;;;;;;5069126;28;20206;-46
2023/04/16 11:30:48;;;;;;;9.30;5.33;;;19.20;59.80;;;;;;5067517;28;20221;-47
2023/04/16 11:33:20;;;;;;;7.37;5.33;;;19.20;59.70;;;;;;5073587;28;20684;-47
2023/04/16 11:36:04;;;;;;;9.37;5.43;;;19.20;59.70;;;;;;5067652;28;20202;-47
2023/04/16 11:38:40;;;;;;;7.50;4.90;;;19.20;59.80;;;;;;5045859;28;20919;-47
2023/04/16 11:41:18;;;;;;;8.93;5.90;;;19.20;59.70;;;;;;5029193;28;20780;-48
2023/04/16 11:43:49;;;;;;;10.23;5.20;;;19.20;59.70;;;;;;5051844;28;20579;-48
2023/04/16 11:46:18;;;;;;;8.80;5.80;;;19.10;59.70;;;;;;5069301;28;20777;-46
2023/04/16 11:48:54;;;;;;;7.20;5.43;;;19.20;59.70;;;;;;5063475;28;20228;-46
2023/04/16 11:51:26;;;;;;;8.53;5.87;;;19.20;59.90;;;;;;5046015;28;20193;-47
2023/04/16 11:53:57;;;;;;;8.60;5.87;;;19.10;59.70;;;;;;5064344;28;20224;-47
2023/04/16 11:56:31;;;;;;;10.37;6.00;;;19.10;59.70;;;;;;5074078;28;20200;-46
2023/04/16 11:59:21;;;;;;;10.23;5.93;;;19.10;59.70;;;;;;5044459;28;20217;-46
2023/04/16 12:01:56;;;;;;;7.87;6.07;;;19.10;59.80;;;;;;5064207;28;20444;-46
2023/04/16 12:04:28;;;;;;;11.00;6.33;;;19.10;60.00;;;;;;5050438;28;20193;-46
2023/04/16 12:07:13;;;;;;;8.30;6.27;;;19.10;59.90;;;;;;5077039;28;20194;-47
2023/04/16 12:09:44;;;;;;;9.07;6.53;;;19.10;60.10;;;;;;5061551;28;20201;-47
2023/04/16 12:12:33;;;;;;;8.90;6.40;;;19.00;60.10;;;;;;5065253;28;20649;-47
2023/04/16 12:15:06;;;;;;;7.87;6.00;;;19.00;60.20;;;;;;5079956;28;20205;-47
2023/04/16 12:17:37;;;;;;;7.23;6.37;;;19.10;60.20;;;;;;5051025;28;20209;-47
2023/04/16 12:20:24;;;;;;;8.97;5.50;;;19.00;60.20;;;;;;5060454;28;20615;-47
2023/04/16 12:22:55;;;;;;;8.93;6.20;;;19.00;60.40;;;;;;5045105;28;20568;-47
2023/04/16 12:25:27;;;;;;;10.67;6.70;;;19.00;60.20;;;;;;5071529;28;20239;-46
2023/04/16 12:27:58;;;;;;;8.73;7.10;;;19.00;60.20;;;;;;5074370;28;20197;-46
2023/04/16 12:30:51;;;;;;;10.07;6.57;;;19.00;60.40;;;;;;5062479;28;20291;-46
2023/04/16 12:33:22;;;;;;;9.20;6.73;;;19.00;60.60;;;;;;5070461;28;20177;-46
2023/04/16 12:35:51;;;;;;;7.97;6.80;;;19.00;60.70;;;;;;5054281;28;20298;-45
2023/04/16 12:38:24;;;;;;;9.83;7.00;;;19.00;60.80;;;;;;5055944;28;20221;-45
2023/04/16 12:40:57;;;;;;;9.37;6.83;;;19.00;60.80;;;;;;5063172;28;20258;-46
2023/04/16 12:43:28;;;;;;;9.27;6.90;;;19.00;60.80;;;;;;5074808;28;20198;-45
2023/04/16 12:46:01;;;;;;;10.97;7.53;;;19.00;60.80;;;;;;5073580;28;20213;-45
2023/04/16 12:48:35;;;;;;;8.13;6.87;;;19.00;60.80;;;;;;5066909;28;20210;-47
2023/04/16 12:51:04;;;;;;;9.07;6.70;;;19.00;60.80;;;;;;5068289;28;20429;-46
2023/04/16 12:53:36;;;;;;;9.33;6.83;;;19.00;61.00;;;;;;5073185;28;20190;-47
2023/04/16 12:56:05;;;;;;;7.80;6.23;;;19.00;61.00;;;;;;5069926;28;20205;-45
2023/04/16 12:58:35;;;;;;;8.63;7.00;;;19.00;60.80;;;;;;5073749;28;20197;-45
2023/04/16 13:01:06;;;;;;;9.20;6.60;;;19.00;61.00;;;;;;5067450;28;20218;-47
2023/04/16 13:03:39;;;;;;;11.30;7.77;;;19.10;61.00;;;;;;5071995;28;20186;-47
2023/04/16 13:06:07;;;;;;;10.67;7.77;;;19.00;61.10;;;;;;5083746;28;20213;-45
2023/04/16 13:08:38;;;;;;;9.60;7.33;;;19.00;61.10;;;;;;5059388;28;20624;-45
2023/04/16 13:11:11;;;;;;;8.97;7.20;;;19.10;61.80;;;;;;5075501;28;20222;-48